sensor_id;sensor_type;location;lat;lon;timestamp;temperature;humidity
6210;DHT22;3138;52.550;13.148;2024-02-14T00:02:26;0.20;99.90
6210;DHT22;3138;52.550;13.148;2024-02-14T00:04:53;0.20;99.90
6210;DHT22;3138;52.550;13.148;2024-02-14T00:07:20;0.30;99.90
6210;DHT22;3138;52.550;13.148;2024-02-14T00:09:47;0.30;99.90
6210;DHT22;3138;52.550;13.148;2024-02-14T00:12:13;0.20;99.90
6210;DHT22;3138;52.550;13.148;2024-02-14T00:14:40;0.20;99.90
6210;DHT22;3138;52.550;13.148;2024-02-14T00:17:09;0.00;99.90
6210;DHT22;3138;52.550;13.148;2024-02-14T00:19:38;0.00;99.90
6210;DHT22;3138;52.550;13.148;2024-02-14T00:22:05;0.00;99.90
6210;DHT22;3138;52.550;13.148;2024-02-14T00:24:32;0.00;99.90
6210;DHT22;3138;52.550;13.148;2024-02-14T00:26:59;-0.10;99.90
6210;DHT22;3138;52.550;13.148;2024-02-14T00:29:26;0.00;99.90
6210;DHT22;3138;52.550;13.148;2024-02-14T00:31:53;0.00;99.90
6210;DHT22;3138;52.550;13.148;2024-02-14T00:34:21;0.10;99.90
6210;DHT22;3138;52.550;13.148;2024-02-14T00:36:49;0.10;99.90
6210;DHT22;3138;52.550;13.148;2024-02-14T00:39:16;0.20;99.90
6210;DHT22;3138;52.550;13.148;2024-02-14T00:41:43;0.20;99.90
6210;DHT22;3138;52.550;13.148;2024-02-14T00:44:09;0.30;99.90
6210;DHT22;3138;52.550;13.148;2024-02-14T00:46:36;0.30;99.90
6210;DHT22;3138;52.550;13.148;2024-02-14T00:49:03;0.40;99.90
6210;DHT22;3138;52.550;13.148;2024-02-14T00:51:31;0.30;99.90
6210;DHT22;3138;52.550;13.148;2024-02-14T00:53:58;0.30;99.90
6210;DHT22;3138;52.550;13.148;2024-02-14T00:56:25;0.30;99.90
6210;DHT22;3138;52.550;13.148;2024-02-14T00:58:52;0.40;99.90
6210;DHT22;3138;52.550;13.148;2024-02-14T01:01:19;0.40;99.90
6210;DHT22;3138;52.550;13.148;2024-02-14T01:03:46;0.40;99.90
6210;DHT22;3138;52.550;13.148;2024-02-14T01:06:14;0.40;99.90
6210;DHT22;3138;52.550;13.148;2024-02-14T01:08:43;0.30;99.90
6210;DHT22;3138;52.550;13.148;2024-02-14T01:11:10;0.20;99.90
6210;DHT22;3138;52.550;13.148;2024-02-14T01:13:37;0.30;99.90
6210;DHT22;3138;52.550;13.148;2024-02-14T01:16:04;0.30;99.90
6210;DHT22;3138;52.550;13.148;2024-02-14T01:18:31;0.20;99.90
6210;DHT22;3138;52.550;13.148;2024-02-14T01:20:58;0.30;99.90
6210;DHT22;3138;52.550;13.148;2024-02-14T01:23:26;0.20;99.90
6210;DHT22;3138;52.550;13.148;2024-02-14T01:25:54;0.20;99.90
6210;DHT22;3138;52.550;13.148;2024-02-14T01:28:21;0.20;99.90
6210;DHT22;3138;52.550;13.148;2024-02-14T01:30:48;0.30;99.90
6210;DHT22;3138;52.550;13.148;2024-02-14T01:33:16;0.30;99.90
6210;DHT22;3138;52.550;13.148;2024-02-14T01:35:43;0.40;99.90
6210;DHT22;3138;52.550;13.148;2024-02-14T01:38:10;0.50;99.90
6210;DHT22;3138;52.550;13.148;2024-02-14T01:40:38;0.50;99.90
6210;DHT22;3138;52.550;13.148;2024-02-14T01:43:06;0.60;99.90
6210;DHT22;3138;52.550;13.148;2024-02-14T01:45:34;0.70;99.90
6210;DHT22;3138;52.550;13.148;2024-02-14T01:48:01;0.80;99.90
6210;DHT22;3138;52.550;13.148;2024-02-14T01:50:28;0.80;99.90
6210;DHT22;3138;52.550;13.148;2024-02-14T01:52:58;0.90;99.90
6210;DHT22;3138;52.550;13.148;2024-02-14T01:55:27;0.90;99.90
6210;DHT22;3138;52.550;13.148;2024-02-14T01:57:54;0.90;99.90
6210;DHT22;3138;52.550;13.148;2024-02-14T02:00:23;1.00;99.90
6210;DHT22;3138;52.550;13.148;2024-02-14T02:02:50;1.00;99.90
6210;DHT22;3138;52.550;13.148;2024-02-14T02:05:17;1.00;99.90
6210;DHT22;3138;52.550;13.148;2024-02-14T02:07:44;1.10;99.90
6210;DHT22;3138;52.550;13.148;2024-02-14T02:10:14;1.00;99.90
6210;DHT22;3138;52.550;13.148;2024-02-14T02:12:41;1.20;99.90
6210;DHT22;3138;52.550;13.148;2024-02-14T02:15:08;1.20;99.90
6210;DHT22;3138;52.550;13.148;2024-02-14T02:17:39;1.10;99.90
6210;DHT22;3138;52.550;13.148;2024-02-14T02:20:07;1.20;99.90
6210;DHT22;3138;52.550;13.148;2024-02-14T02:22:35;1.20;99.90
6210;DHT22;3138;52.550;13.148;2024-02-14T02:25:04;1.30;99.90
6210;DHT22;3138;52.550;13.148;2024-02-14T02:27:33;1.30;99.90
6210;DHT22;3138;52.550;13.148;2024-02-14T02:30:04;1.30;99.90
6210;DHT22;3138;52.550;13.148;2024-02-14T02:32:31;1.30;99.90
6210;DHT22;3138;52.550;13.148;2024-02-14T02:34:58;1.40;99.90
6210;DHT22;3138;52.550;13.148;2024-02-14T02:37:25;1.40;99.90
6210;DHT22;3138;52.550;13.148;2024-02-14T02:39:54;1.20;99.90
6210;DHT22;3138;52.550;13.148;2024-02-14T02:42:22;1.20;99.90
6210;DHT22;3138;52.550;13.148;2024-02-14T02:44:49;1.10;99.90
6210;DHT22;3138;52.550;13.148;2024-02-14T02:47:16;1.20;99.90
6210;DHT22;3138;52.550;13.148;2024-02-14T02:49:44;1.10;99.90
6210;DHT22;3138;52.550;13.148;2024-02-14T02:52:11;1.20;99.90
6210;DHT22;3138;52.550;13.148;2024-02-14T02:54:38;1.20;99.90
6210;DHT22;3138;52.550;13.148;2024-02-14T02:57:06;1.30;99.90
6210;DHT22;3138;52.550;13.148;2024-02-14T02:59:35;1.20;99.90
6210;DHT22;3138;52.550;13.148;2024-02-14T03:02:02;1.40;99.90
6210;DHT22;3138;52.550;13.148;2024-02-14T03:04:32;1.40;99.90
6210;DHT22;3138;52.550;13.148;2024-02-14T03:06:59;1.40;99.90
6210;DHT22;3138;52.550;13.148;2024-02-14T03:09:33;1.40;99.90
6210;DHT22;3138;52.550;13.148;2024-02-14T03:12:00;1.30;99.90
6210;DHT22;3138;52.550;13.148;2024-02-14T03:14:29;1.40;99.90
6210;DHT22;3138;52.550;13.148;2024-02-14T03:16:59;1.40;99.90
6210;DHT22;3138;52.550;13.148;2024-02-14T03:19:27;1.50;99.90
6210;DHT22;3138;52.550;13.148;2024-02-14T03:21:53;1.50;99.90
6210;DHT22;3138;52.550;13.148;2024-02-14T03:24:20;1.50;99.90
6210;DHT22;3138;52.550;13.148;2024-02-14T03:26:47;1.50;99.90
6210;DHT22;3138;52.550;13.148;2024-02-14T03:29:17;1.60;99.90
6210;DHT22;3138;52.550;13.148;2024-02-14T03:31:45;1.60;99.90
6210;DHT22;3138;52.550;13.148;2024-02-14T03:34:13;1.60;99.90
6210;DHT22;3138;52.550;13.148;2024-02-14T03:36:40;1.70;99.90
6210;DHT22;3138;52.550;13.148;2024-02-14T03:39:06;1.70;99.90
6210;DHT22;3138;52.550;13.148;2024-02-14T03:41:34;1.70;99.90
6210;DHT22;3138;52.550;13.148;2024-02-14T03:44:00;1.70;99.90
6210;DHT22;3138;52.550;13.148;2024-02-14T03:46:29;1.80;99.90
6210;DHT22;3138;52.550;13.148;2024-02-14T03:48:56;1.80;99.90
6210;DHT22;3138;52.550;13.148;2024-02-14T03:51:24;1.90;99.90
6210;DHT22;3138;52.550;13.148;2024-02-14T03:53:51;1.90;99.90
6210;DHT22;3138;52.550;13.148;2024-02-14T03:56:18;2.00;99.90
6210;DHT22;3138;52.550;13.148;2024-02-14T03:58:45;2.10;99.90
6210;DHT22;3138;52.550;13.148;2024-02-14T04:01:12;2.10;99.90
6210;DHT22;3138;52.550;13.148;2024-02-14T04:03:39;2.20;99.90
6210;DHT22;3138;52.550;13.148;2024-02-14T04:06:06;2.10;99.90
6210;DHT22;3138;52.550;13.148;2024-02-14T04:08:34;2.20;99.90
6210;DHT22;3138;52.550;13.148;2024-02-14T04:11:01;2.20;99.90
6210;DHT22;3138;52.550;13.148;2024-02-14T04:13:28;2.20;99.90
6210;DHT22;3138;52.550;13.148;2024-02-14T04:15:55;2.30;99.90
6210;DHT22;3138;52.550;13.148;2024-02-14T04:18:22;2.20;99.90
6210;DHT22;3138;52.550;13.148;2024-02-14T04:20:49;2.30;99.90
6210;DHT22;3138;52.550;13.148;2024-02-14T04:23:15;2.40;99.90
6210;DHT22;3138;52.550;13.148;2024-02-14T04:25:44;2.40;99.90
6210;DHT22;3138;52.550;13.148;2024-02-14T04:28:10;2.40;99.90
6210;DHT22;3138;52.550;13.148;2024-02-14T04:30:37;2.40;99.90
6210;DHT22;3138;52.550;13.148;2024-02-14T04:33:05;2.40;99.90
6210;DHT22;3138;52.550;13.148;2024-02-14T04:35:33;2.40;99.90
6210;DHT22;3138;52.550;13.148;2024-02-14T04:38:00;2.50;99.90
6210;DHT22;3138;52.550;13.148;2024-02-14T04:40:28;2.60;99.90
6210;DHT22;3138;52.550;13.148;2024-02-14T04:42:56;2.50;99.90
6210;DHT22;3138;52.550;13.148;2024-02-14T04:45:23;2.50;99.90
6210;DHT22;3138;52.550;13.148;2024-02-14T04:47:50;2.60;99.90
6210;DHT22;3138;52.550;13.148;2024-02-14T04:50:16;2.60;99.90
6210;DHT22;3138;52.550;13.148;2024-02-14T04:52:44;2.60;99.90
6210;DHT22;3138;52.550;13.148;2024-02-14T04:55:11;2.70;99.90
6210;DHT22;3138;52.550;13.148;2024-02-14T04:57:38;2.70;99.90
6210;DHT22;3138;52.550;13.148;2024-02-14T05:00:07;2.80;99.90
6210;DHT22;3138;52.550;13.148;2024-02-14T05:02:35;2.80;99.90
6210;DHT22;3138;52.550;13.148;2024-02-14T05:05:03;2.70;99.90
6210;DHT22;3138;52.550;13.148;2024-02-14T05:07:29;2.70;99.90
6210;DHT22;3138;52.550;13.148;2024-02-14T05:09:57;2.80;99.90
6210;DHT22;3138;52.550;13.148;2024-02-14T05:12:23;2.80;99.90
6210;DHT22;3138;52.550;13.148;2024-02-14T05:14:50;2.80;99.90
6210;DHT22;3138;52.550;13.148;2024-02-14T05:17:18;2.90;99.90
6210;DHT22;3138;52.550;13.148;2024-02-14T05:19:45;2.90;99.90
6210;DHT22;3138;52.550;13.148;2024-02-14T05:22:12;2.90;99.90
6210;DHT22;3138;52.550;13.148;2024-02-14T05:24:39;2.90;99.90
6210;DHT22;3138;52.550;13.148;2024-02-14T05:27:06;3.00;99.90
6210;DHT22;3138;52.550;13.148;2024-02-14T05:29:32;3.00;99.90
6210;DHT22;3138;52.550;13.148;2024-02-14T05:31:59;3.00;99.90
6210;DHT22;3138;52.550;13.148;2024-02-14T05:34:28;3.00;99.90
6210;DHT22;3138;52.550;13.148;2024-02-14T05:36:54;3.10;99.90
6210;DHT22;3138;52.550;13.148;2024-02-14T05:39:21;3.10;99.90
6210;DHT22;3138;52.550;13.148;2024-02-14T05:41:48;3.20;99.90
6210;DHT22;3138;52.550;13.148;2024-02-14T05:44:15;3.10;99.90
6210;DHT22;3138;52.550;13.148;2024-02-14T05:46:42;3.10;99.90
6210;DHT22;3138;52.550;13.148;2024-02-14T05:49:10;3.10;99.90
6210;DHT22;3138;52.550;13.148;2024-02-14T05:51:38;3.20;99.90
6210;DHT22;3138;52.550;13.148;2024-02-14T05:54:06;3.20;99.90
6210;DHT22;3138;52.550;13.148;2024-02-14T05:56:33;3.20;99.90
6210;DHT22;3138;52.550;13.148;2024-02-14T05:59:00;3.20;99.90
6210;DHT22;3138;52.550;13.148;2024-02-14T06:01:27;3.20;99.90
6210;DHT22;3138;52.550;13.148;2024-02-14T06:03:54;3.30;99.90
6210;DHT22;3138;52.550;13.148;2024-02-14T06:06:21;3.30;99.90
6210;DHT22;3138;52.550;13.148;2024-02-14T06:08:50;3.40;99.90
6210;DHT22;3138;52.550;13.148;2024-02-14T06:11:17;3.40;99.90
6210;DHT22;3138;52.550;13.148;2024-02-14T06:13:46;3.40;99.90
6210;DHT22;3138;52.550;13.148;2024-02-14T06:16:13;3.40;99.90
6210;DHT22;3138;52.550;13.148;2024-02-14T06:18:40;3.40;99.90
6210;DHT22;3138;52.550;13.148;2024-02-14T06:21:07;3.40;99.90
6210;DHT22;3138;52.550;13.148;2024-02-14T06:23:34;3.40;99.90
6210;DHT22;3138;52.550;13.148;2024-02-14T06:26:04;3.50;99.90
6210;DHT22;3138;52.550;13.148;2024-02-14T06:28:31;3.50;99.90
6210;DHT22;3138;52.550;13.148;2024-02-14T06:30:57;3.50;99.90
6210;DHT22;3138;52.550;13.148;2024-02-14T06:33:25;3.60;99.90
6210;DHT22;3138;52.550;13.148;2024-02-14T06:35:52;3.50;99.90
6210;DHT22;3138;52.550;13.148;2024-02-14T06:38:19;3.60;99.90
6210;DHT22;3138;52.550;13.148;2024-02-14T06:40:46;3.60;99.90
6210;DHT22;3138;52.550;13.148;2024-02-14T06:43:14;3.60;99.90
6210;DHT22;3138;52.550;13.148;2024-02-14T06:45:41;3.70;99.90
6210;DHT22;3138;52.550;13.148;2024-02-14T06:48:09;3.70;99.90
6210;DHT22;3138;52.550;13.148;2024-02-14T06:50:36;3.80;99.90
6210;DHT22;3138;52.550;13.148;2024-02-14T06:53:03;3.80;99.90
6210;DHT22;3138;52.550;13.148;2024-02-14T06:55:30;3.80;99.90
6210;DHT22;3138;52.550;13.148;2024-02-14T06:57:57;3.90;99.90
6210;DHT22;3138;52.550;13.148;2024-02-14T07:00:25;4.00;99.90
6210;DHT22;3138;52.550;13.148;2024-02-14T07:02:53;4.00;99.90
6210;DHT22;3138;52.550;13.148;2024-02-14T07:05:20;4.00;99.90
6210;DHT22;3138;52.550;13.148;2024-02-14T07:07:47;4.10;99.90
6210;DHT22;3138;52.550;13.148;2024-02-14T07:10:14;4.20;99.90
6210;DHT22;3138;52.550;13.148;2024-02-14T07:12:40;4.20;99.90
6210;DHT22;3138;52.550;13.148;2024-02-14T07:15:07;4.30;99.90
6210;DHT22;3138;52.550;13.148;2024-02-14T07:17:36;4.30;99.90
6210;DHT22;3138;52.550;13.148;2024-02-14T07:20:04;4.30;99.90
6210;DHT22;3138;52.550;13.148;2024-02-14T07:22:34;4.40;99.90
6210;DHT22;3138;52.550;13.148;2024-02-14T07:25:01;4.40;99.90
6210;DHT22;3138;52.550;13.148;2024-02-14T07:27:32;4.50;99.90
6210;DHT22;3138;52.550;13.148;2024-02-14T07:29:59;4.50;99.90
6210;DHT22;3138;52.550;13.148;2024-02-14T07:32:26;4.50;99.90
6210;DHT22;3138;52.550;13.148;2024-02-14T07:34:54;4.50;99.90
6210;DHT22;3138;52.550;13.148;2024-02-14T07:37:21;4.60;99.90
6210;DHT22;3138;52.550;13.148;2024-02-14T07:39:48;4.50;99.90
6210;DHT22;3138;52.550;13.148;2024-02-14T07:42:15;4.60;99.90
6210;DHT22;3138;52.550;13.148;2024-02-14T07:44:42;4.60;99.90
6210;DHT22;3138;52.550;13.148;2024-02-14T07:47:08;4.60;99.90
6210;DHT22;3138;52.550;13.148;2024-02-14T07:49:35;4.70;99.90
6210;DHT22;3138;52.550;13.148;2024-02-14T07:52:04;4.80;99.90
6210;DHT22;3138;52.550;13.148;2024-02-14T07:54:31;4.80;99.90
6210;DHT22;3138;52.550;13.148;2024-02-14T07:56:58;4.80;99.90
6210;DHT22;3138;52.550;13.148;2024-02-14T07:59:25;4.90;99.90
6210;DHT22;3138;52.550;13.148;2024-02-14T08:01:52;5.00;99.90
6210;DHT22;3138;52.550;13.148;2024-02-14T08:04:19;5.00;99.90
6210;DHT22;3138;52.550;13.148;2024-02-14T08:06:47;5.00;99.90
6210;DHT22;3138;52.550;13.148;2024-02-14T08:09:16;5.00;99.90
6210;DHT22;3138;52.550;13.148;2024-02-14T08:11:43;5.00;99.90
6210;DHT22;3138;52.550;13.148;2024-02-14T08:14:09;5.00;99.90
6210;DHT22;3138;52.550;13.148;2024-02-14T08:16:38;5.10;99.90
6210;DHT22;3138;52.550;13.148;2024-02-14T08:19:04;5.20;99.90
6210;DHT22;3138;52.550;13.148;2024-02-14T08:21:31;5.20;99.90
6210;DHT22;3138;52.550;13.148;2024-02-14T08:23:58;5.40;99.90
6210;DHT22;3138;52.550;13.148;2024-02-14T08:26:26;5.40;99.90
6210;DHT22;3138;52.550;13.148;2024-02-14T08:28:53;5.40;99.90
6210;DHT22;3138;52.550;13.148;2024-02-14T08:31:20;5.50;99.90
6210;DHT22;3138;52.550;13.148;2024-02-14T08:33:47;5.50;99.90
6210;DHT22;3138;52.550;13.148;2024-02-14T08:36:14;5.70;99.90
6210;DHT22;3138;52.550;13.148;2024-02-14T08:38:42;5.70;99.90
6210;DHT22;3138;52.550;13.148;2024-02-14T08:41:09;5.90;99.90
6210;DHT22;3138;52.550;13.148;2024-02-14T08:43:37;6.00;99.90
6210;DHT22;3138;52.550;13.148;2024-02-14T08:46:09;6.00;99.90
6210;DHT22;3138;52.550;13.148;2024-02-14T08:48:36;6.10;99.90
6210;DHT22;3138;52.550;13.148;2024-02-14T08:51:07;6.10;99.90
6210;DHT22;3138;52.550;13.148;2024-02-14T08:53:34;6.10;99.90
6210;DHT22;3138;52.550;13.148;2024-02-14T08:56:01;6.10;99.90
6210;DHT22;3138;52.550;13.148;2024-02-14T08:58:28;6.20;99.90
6210;DHT22;3138;52.550;13.148;2024-02-14T09:00:56;6.10;99.90
6210;DHT22;3138;52.550;13.148;2024-02-14T09:03:23;6.10;99.90
6210;DHT22;3138;52.550;13.148;2024-02-14T09:05:50;6.00;99.90
6210;DHT22;3138;52.550;13.148;2024-02-14T09:08:18;6.00;99.90
6210;DHT22;3138;52.550;13.148;2024-02-14T09:10:46;6.00;99.90
6210;DHT22;3138;52.550;13.148;2024-02-14T09:13:13;6.00;99.90
6210;DHT22;3138;52.550;13.148;2024-02-14T09:15:40;5.90;99.90
6210;DHT22;3138;52.550;13.148;2024-02-14T09:18:08;5.80;99.90
6210;DHT22;3138;52.550;13.148;2024-02-14T09:20:35;5.90;99.90
6210;DHT22;3138;52.550;13.148;2024-02-14T09:23:03;5.80;99.90
6210;DHT22;3138;52.550;13.148;2024-02-14T09:25:30;5.80;99.90
6210;DHT22;3138;52.550;13.148;2024-02-14T09:27:57;5.80;99.90
6210;DHT22;3138;52.550;13.148;2024-02-14T09:30:24;5.80;99.90
6210;DHT22;3138;52.550;13.148;2024-02-14T09:32:50;5.90;99.90
6210;DHT22;3138;52.550;13.148;2024-02-14T09:35:19;5.90;99.90
6210;DHT22;3138;52.550;13.148;2024-02-14T09:37:45;6.00;99.90
6210;DHT22;3138;52.550;13.148;2024-02-14T09:40:12;5.90;99.90
6210;DHT22;3138;52.550;13.148;2024-02-14T09:42:44;5.90;99.90
6210;DHT22;3138;52.550;13.148;2024-02-14T09:45:14;5.90;99.90
6210;DHT22;3138;52.550;13.148;2024-02-14T09:47:40;5.90;99.90
6210;DHT22;3138;52.550;13.148;2024-02-14T09:50:09;5.90;99.90
6210;DHT22;3138;52.550;13.148;2024-02-14T09:52:39;6.10;99.90
6210;DHT22;3138;52.550;13.148;2024-02-14T09:55:08;6.20;99.90
6210;DHT22;3138;52.550;13.148;2024-02-14T09:57:37;6.20;99.90
6210;DHT22;3138;52.550;13.148;2024-02-14T10:00:09;6.30;99.90
6210;DHT22;3138;52.550;13.148;2024-02-14T10:02:36;6.20;99.90
6210;DHT22;3138;52.550;13.148;2024-02-14T10:05:03;6.20;99.90
6210;DHT22;3138;52.550;13.148;2024-02-14T10:07:30;6.30;99.90
6210;DHT22;3138;52.550;13.148;2024-02-14T10:10:07;6.30;99.90
6210;DHT22;3138;52.550;13.148;2024-02-14T10:12:34;6.20;99.90
6210;DHT22;3138;52.550;13.148;2024-02-14T10:15:01;6.20;99.90
6210;DHT22;3138;52.550;13.148;2024-02-14T10:17:28;6.30;99.90
6210;DHT22;3138;52.550;13.148;2024-02-14T10:19:56;6.40;99.90
6210;DHT22;3138;52.550;13.148;2024-02-14T10:22:23;6.50;99.90
6210;DHT22;3138;52.550;13.148;2024-02-14T10:24:51;6.60;99.90
6210;DHT22;3138;52.550;13.148;2024-02-14T10:27:21;6.60;99.90
6210;DHT22;3138;52.550;13.148;2024-02-14T10:29:47;6.50;99.90
6210;DHT22;3138;52.550;13.148;2024-02-14T10:32:15;6.50;99.90
6210;DHT22;3138;52.550;13.148;2024-02-14T10:34:43;6.60;99.90
6210;DHT22;3138;52.550;13.148;2024-02-14T10:37:14;6.60;99.90
6210;DHT22;3138;52.550;13.148;2024-02-14T10:39:42;6.70;99.90
6210;DHT22;3138;52.550;13.148;2024-02-14T10:42:10;6.70;99.90
6210;DHT22;3138;52.550;13.148;2024-02-14T10:44:38;6.80;99.90
6210;DHT22;3138;52.550;13.148;2024-02-14T10:47:06;6.90;99.90
6210;DHT22;3138;52.550;13.148;2024-02-14T10:49:36;6.90;99.90
6210;DHT22;3138;52.550;13.148;2024-02-14T10:52:05;7.00;99.90
6210;DHT22;3138;52.550;13.148;2024-02-14T10:54:33;7.10;99.90
6210;DHT22;3138;52.550;13.148;2024-02-14T10:57:05;7.10;99.90
6210;DHT22;3138;52.550;13.148;2024-02-14T10:59:40;7.20;99.90
6210;DHT22;3138;52.550;13.148;2024-02-14T11:02:08;7.10;99.90
6210;DHT22;3138;52.550;13.148;2024-02-14T11:04:36;7.00;99.90
6210;DHT22;3138;52.550;13.148;2024-02-14T11:07:09;7.10;99.90
6210;DHT22;3138;52.550;13.148;2024-02-14T11:09:36;7.00;99.90
6210;DHT22;3138;52.550;13.148;2024-02-14T11:12:06;7.00;99.90
6210;DHT22;3138;52.550;13.148;2024-02-14T11:14:34;6.90;99.90
6210;DHT22;3138;52.550;13.148;2024-02-14T11:17:09;7.00;99.90
6210;DHT22;3138;52.550;13.148;2024-02-14T11:19:36;7.10;99.90
6210;DHT22;3138;52.550;13.148;2024-02-14T11:22:13;7.20;99.90
6210;DHT22;3138;52.550;13.148;2024-02-14T11:24:39;7.20;99.90
6210;DHT22;3138;52.550;13.148;2024-02-14T11:27:10;7.30;99.90
6210;DHT22;3138;52.550;13.148;2024-02-14T11:29:39;7.40;99.90
6210;DHT22;3138;52.550;13.148;2024-02-14T11:32:09;7.40;99.90
6210;DHT22;3138;52.550;13.148;2024-02-14T11:34:37;7.30;99.90
6210;DHT22;3138;52.550;13.148;2024-02-14T11:37:04;7.40;99.90
6210;DHT22;3138;52.550;13.148;2024-02-14T11:39:33;7.40;99.90
6210;DHT22;3138;52.550;13.148;2024-02-14T11:42:00;7.50;99.90
6210;DHT22;3138;52.550;13.148;2024-02-14T11:44:27;7.60;99.90
6210;DHT22;3138;52.550;13.148;2024-02-14T11:46:54;7.60;99.90
6210;DHT22;3138;52.550;13.148;2024-02-14T11:49:25;7.60;99.90
6210;DHT22;3138;52.550;13.148;2024-02-14T11:51:53;7.60;99.90
6210;DHT22;3138;52.550;13.148;2024-02-14T11:54:20;7.60;99.90
6210;DHT22;3138;52.550;13.148;2024-02-14T11:56:47;7.60;99.90
6210;DHT22;3138;52.550;13.148;2024-02-14T11:59:15;7.60;99.90
6210;DHT22;3138;52.550;13.148;2024-02-14T12:01:45;7.60;99.90
6210;DHT22;3138;52.550;13.148;2024-02-14T12:04:14;7.50;99.90
6210;DHT22;3138;52.550;13.148;2024-02-14T12:06:42;7.60;99.90
6210;DHT22;3138;52.550;13.148;2024-02-14T12:09:11;7.60;99.90
6210;DHT22;3138;52.550;13.148;2024-02-14T12:11:41;7.60;99.90
6210;DHT22;3138;52.550;13.148;2024-02-14T12:14:09;7.70;99.90
6210;DHT22;3138;52.550;13.148;2024-02-14T12:16:37;7.70;99.90
6210;DHT22;3138;52.550;13.148;2024-02-14T12:19:06;7.80;99.90
6210;DHT22;3138;52.550;13.148;2024-02-14T12:21:35;7.80;99.90
6210;DHT22;3138;52.550;13.148;2024-02-14T12:24:04;7.90;99.90
6210;DHT22;3138;52.550;13.148;2024-02-14T12:26:31;7.90;99.90
6210;DHT22;3138;52.550;13.148;2024-02-14T12:29:01;7.90;99.90
6210;DHT22;3138;52.550;13.148;2024-02-14T12:31:29;7.90;99.90
6210;DHT22;3138;52.550;13.148;2024-02-14T12:33:56;8.00;99.90
6210;DHT22;3138;52.550;13.148;2024-02-14T12:36:25;8.00;99.90
6210;DHT22;3138;52.550;13.148;2024-02-14T12:38:52;8.10;99.90
6210;DHT22;3138;52.550;13.148;2024-02-14T12:41:20;8.20;99.90
6210;DHT22;3138;52.550;13.148;2024-02-14T12:43:49;8.30;99.90
6210;DHT22;3138;52.550;13.148;2024-02-14T12:46:15;8.20;99.90
6210;DHT22;3138;52.550;13.148;2024-02-14T12:48:42;8.20;99.90
6210;DHT22;3138;52.550;13.148;2024-02-14T12:51:10;8.10;99.90
6210;DHT22;3138;52.550;13.148;2024-02-14T12:53:36;8.10;99.90
6210;DHT22;3138;52.550;13.148;2024-02-14T12:56:04;8.10;99.90
6210;DHT22;3138;52.550;13.148;2024-02-14T12:58:33;8.10;99.90
6210;DHT22;3138;52.550;13.148;2024-02-14T13:01:00;8.00;99.90
6210;DHT22;3138;52.550;13.148;2024-02-14T13:03:31;8.10;99.90
6210;DHT22;3138;52.550;13.148;2024-02-14T13:05:58;8.10;99.90
6210;DHT22;3138;52.550;13.148;2024-02-14T13:08:27;8.10;99.90
6210;DHT22;3138;52.550;13.148;2024-02-14T13:10:54;8.10;99.90
6210;DHT22;3138;52.550;13.148;2024-02-14T13:13:22;8.10;99.90
6210;DHT22;3138;52.550;13.148;2024-02-14T13:15:50;8.10;99.90
6210;DHT22;3138;52.550;13.148;2024-02-14T13:18:18;8.00;99.90
6210;DHT22;3138;52.550;13.148;2024-02-14T13:20:45;8.10;99.90
6210;DHT22;3138;52.550;13.148;2024-02-14T13:23:11;8.10;99.90
6210;DHT22;3138;52.550;13.148;2024-02-14T13:25:40;8.10;99.90
6210;DHT22;3138;52.550;13.148;2024-02-14T13:28:06;8.10;99.90
6210;DHT22;3138;52.550;13.148;2024-02-14T13:30:33;8.20;99.90
6210;DHT22;3138;52.550;13.148;2024-02-14T13:33:01;8.30;99.90
6210;DHT22;3138;52.550;13.148;2024-02-14T13:35:28;8.20;99.90
6210;DHT22;3138;52.550;13.148;2024-02-14T13:37:56;8.20;99.90
6210;DHT22;3138;52.550;13.148;2024-02-14T13:40:24;8.20;99.90
6210;DHT22;3138;52.550;13.148;2024-02-14T13:42:50;8.30;99.90
6210;DHT22;3138;52.550;13.148;2024-02-14T13:45:17;8.30;99.90
6210;DHT22;3138;52.550;13.148;2024-02-14T13:47:44;8.40;99.90
6210;DHT22;3138;52.550;13.148;2024-02-14T13:50:13;8.40;99.90
6210;DHT22;3138;52.550;13.148;2024-02-14T13:52:40;8.40;99.90
6210;DHT22;3138;52.550;13.148;2024-02-14T13:55:07;8.50;99.90
6210;DHT22;3138;52.550;13.148;2024-02-14T13:57:36;8.50;99.90
6210;DHT22;3138;52.550;13.148;2024-02-14T14:00:05;8.40;99.90
6210;DHT22;3138;52.550;13.148;2024-02-14T14:02:35;8.40;99.90
6210;DHT22;3138;52.550;13.148;2024-02-14T14:05:06;8.40;99.90
6210;DHT22;3138;52.550;13.148;2024-02-14T14:07:35;8.40;99.90
6210;DHT22;3138;52.550;13.148;2024-02-14T14:10:03;8.40;99.90
6210;DHT22;3138;52.550;13.148;2024-02-14T14:12:30;8.40;99.90
6210;DHT22;3138;52.550;13.148;2024-02-14T14:14:57;8.40;99.90
6210;DHT22;3138;52.550;13.148;2024-02-14T14:17:26;8.40;99.90
6210;DHT22;3138;52.550;13.148;2024-02-14T14:19:54;8.50;99.90
6210;DHT22;3138;52.550;13.148;2024-02-14T14:22:21;8.50;99.90
6210;DHT22;3138;52.550;13.148;2024-02-14T14:24:49;8.50;99.90
6210;DHT22;3138;52.550;13.148;2024-02-14T14:27:16;8.50;99.90
6210;DHT22;3138;52.550;13.148;2024-02-14T14:29:47;8.60;99.90
6210;DHT22;3138;52.550;13.148;2024-02-14T14:32:14;8.70;99.90
6210;DHT22;3138;52.550;13.148;2024-02-14T14:34:43;8.70;99.90
6210;DHT22;3138;52.550;13.148;2024-02-14T14:37:11;8.70;99.90
6210;DHT22;3138;52.550;13.148;2024-02-14T14:39:37;8.70;99.90
6210;DHT22;3138;52.550;13.148;2024-02-14T14:42:06;8.70;99.90
6210;DHT22;3138;52.550;13.148;2024-02-14T14:44:33;8.70;99.90
6210;DHT22;3138;52.550;13.148;2024-02-14T14:47:00;8.70;99.90
6210;DHT22;3138;52.550;13.148;2024-02-14T14:49:27;8.80;99.90
6210;DHT22;3138;52.550;13.148;2024-02-14T14:51:54;8.80;99.90
6210;DHT22;3138;52.550;13.148;2024-02-14T14:54:23;8.80;99.90
6210;DHT22;3138;52.550;13.148;2024-02-14T14:56:53;8.90;99.90
6210;DHT22;3138;52.550;13.148;2024-02-14T14:59:21;8.90;99.90
6210;DHT22;3138;52.550;13.148;2024-02-14T15:01:49;8.90;99.90
6210;DHT22;3138;52.550;13.148;2024-02-14T15:04:16;9.00;99.90
6210;DHT22;3138;52.550;13.148;2024-02-14T15:06:43;9.00;99.90
6210;DHT22;3138;52.550;13.148;2024-02-14T15:09:10;9.00;99.90
6210;DHT22;3138;52.550;13.148;2024-02-14T15:11:36;9.00;99.90
6210;DHT22;3138;52.550;13.148;2024-02-14T15:14:03;9.00;99.90
6210;DHT22;3138;52.550;13.148;2024-02-14T15:16:33;9.00;99.90
6210;DHT22;3138;52.550;13.148;2024-02-14T15:19:00;9.00;99.90
6210;DHT22;3138;52.550;13.148;2024-02-14T15:21:27;9.10;99.90
6210;DHT22;3138;52.550;13.148;2024-02-14T15:23:54;9.10;99.90
6210;DHT22;3138;52.550;13.148;2024-02-14T15:26:21;9.00;99.90
6210;DHT22;3138;52.550;13.148;2024-02-14T15:28:50;9.00;99.90
6210;DHT22;3138;52.550;13.148;2024-02-14T15:31:24;9.00;99.90
6210;DHT22;3138;52.550;13.148;2024-02-14T15:34:12;9.00;99.90
6210;DHT22;3138;52.550;13.148;2024-02-14T15:36:39;9.00;99.90
6210;DHT22;3138;52.550;13.148;2024-02-14T15:39:06;9.00;99.90
6210;DHT22;3138;52.550;13.148;2024-02-14T15:41:35;9.00;99.90
6210;DHT22;3138;52.550;13.148;2024-02-14T15:44:02;9.00;99.90
6210;DHT22;3138;52.550;13.148;2024-02-14T15:46:31;9.00;99.90
6210;DHT22;3138;52.550;13.148;2024-02-14T15:48:57;9.00;99.90
6210;DHT22;3138;52.550;13.148;2024-02-14T15:51:26;9.00;99.90
6210;DHT22;3138;52.550;13.148;2024-02-14T15:53:52;9.00;99.90
6210;DHT22;3138;52.550;13.148;2024-02-14T15:56:19;9.00;99.90
6210;DHT22;3138;52.550;13.148;2024-02-14T15:58:46;9.00;99.90
6210;DHT22;3138;52.550;13.148;2024-02-14T16:01:13;9.00;99.90
6210;DHT22;3138;52.550;13.148;2024-02-14T16:03:42;9.00;99.90
6210;DHT22;3138;52.550;13.148;2024-02-14T16:06:08;9.00;99.90